Time;durP1;ratioP1;P1;durP2;ratioP2;P2;SDS_P1;SDS_P2;PMS_P1;PMS_P2;Temp;Humidity;BMP_temperature;BMP_pressure;BME280_temperature;BME280_humidity;BME280_pressure;Samples;Min_cycle;Max_cycle;Signal;HPM_P1;HPM_P2
2022/09/05 00:04:09;;;;;;;6.32;3.70;;;;;;;17.62;60.18;100496.88;7543401;33;37164;-72
2022/09/05 00:09:07;;;;;;;6.15;3.40;;;;;;;17.33;60.68;100512.81;7554455;33;40105;-70
2022/09/05 00:13:37;;;;;;;5.18;3.65;;;;;;;16.92;62.14;100513.41;7554501;33;40945;-72
2022/09/05 00:18:40;;;;;;;4.97;3.35;;;;;;;17.30;60.90;100521.66;7554492;33;37589;-72
2022/09/05 00:23:35;;;;;;;5.57;3.57;;;;;;;17.34;60.67;100518.00;7587953;32;37513;-72
2022/09/05 00:29:13;;;;;;;6.20;4.03;;;;;;;17.32;60.51;100516.69;7594523;32;39465;-72
2022/09/05 00:34:01;;;;;;;8.40;4.33;;;;;;;17.11;61.31;100510.66;7578800;32;40779;-71
2022/09/05 00:38:24;;;;;;;6.40;4.20;;;;;;;16.97;62.08;100507.81;7627542;32;37877;-72
2022/09/05 00:42:52;;;;;;;8.52;4.18;;;;;;;17.18;61.53;100505.59;7579843;33;37362;-71
2022/09/05 00:47:26;;;;;;;6.45;4.25;;;;;;;17.07;61.63;100504.91;7574608;33;40239;-71
2022/09/05 00:51:57;;;;;;;7.87;3.95;;;;;;;16.86;62.23;100499.69;7579518;33;40008;-72
2022/09/05 00:56:33;;;;;;;5.60;3.62;;;;;;;16.78;62.26;100507.78;7579466;33;38483;-72
2022/09/05 01:00:57;;;;;;;6.82;4.07;;;;;;;16.73;62.06;100505.09;7579490;33;37883;-72
2022/09/05 01:05:35;;;;;;;6.53;3.58;;;;;;;16.84;61.77;100507.44;7579398;33;39002;-72
2022/09/05 01:10:02;;;;;;;7.55;3.78;;;;;;;17.02;61.10;100502.22;7593124;32;39625;-72
2022/09/05 01:14:50;;;;;;;9.88;3.95;;;;;;;16.94;60.93;100508.44;7631014;32;38665;-71
2022/09/05 01:19:38;;;;;;;6.82;3.72;;;;;;;17.08;60.19;100503.81;7628577;32;36993;-72
2022/09/05 01:23:54;;;;;;;5.75;3.47;;;;;;;16.94;60.59;100494.66;7609757;32;40137;-72
2022/09/05 01:28:22;;;;;;;3.97;3.12;;;;;;;17.08;60.14;100492.78;7608571;32;40040;-72
2022/09/05 01:33:01;;;;;;;5.45;3.80;;;;;;;17.04;60.61;100498.09;7606999;32;39135;-71
2022/09/05 01:37:37;;;;;;;4.90;3.40;;;;;;;17.05;60.64;100494.19;7608241;32;35460;-72
2022/09/05 01:42:06;;;;;;;10.38;4.30;;;;;;;17.00;60.70;100496.22;7601258;32;40122;-72
2022/09/05 01:46:40;;;;;;;5.70;3.50;;;;;;;16.94;60.69;100498.22;7594311;32;40055;-72
2022/09/05 01:51:27;;;;;;;6.57;3.97;;;;;;;16.83;61.02;100504.94;7607575;32;37883;-72
2022/09/05 01:56:05;;;;;;;6.07;3.90;;;;;;;16.88;60.98;100502.16;7606433;32;37055;-72
2022/09/05 02:00:46;;;;;;;5.60;3.50;;;;;;;16.87;60.83;100501.34;7581777;33;39393;-71
2022/09/05 02:05:18;;;;;;;7.80;4.10;;;;;;;16.78;60.83;100497.59;7581578;33;40003;-72
2022/09/05 02:10:28;;;;;;;7.18;3.95;;;;;;;16.49;61.48;100511.47;7598735;32;39098;-71
2022/09/05 02:14:50;;;;;;;8.10;3.35;;;;;;;16.67;60.79;100510.66;7625602;32;37356;-71
2022/09/05 02:19:14;;;;;;;6.20;3.70;;;;;;;16.17;61.89;100509.34;7607439;32;39375;-72
2022/09/05 02:24:02;;;;;;;7.20;3.78;;;;;;;16.54;60.82;100505.91;7607285;32;39907;-71
2022/09/05 02:28:36;;;;;;;5.85;3.85;;;;;;;16.08;62.53;100507.22;7584461;32;38192;-71
2022/09/05 02:33:07;;;;;;;6.72;3.75;;;;;;;16.20;62.33;100506.03;7600295;32;37768;-72
2022/09/05 02:37:46;;;;;;;5.93;3.60;;;;;;;16.24;62.43;100509.81;7607218;32;39011;-72
2022/09/05 02:42:33;;;;;;;8.35;3.65;;;;;;;16.38;61.76;100513.50;7606674;32;40263;-72
2022/09/05 02:47:39;;;;;;;7.15;4.03;;;;;;;16.47;61.11;100509.00;7610558;32;37937;-71
2022/09/05 02:52:04;;;;;;;8.43;4.05;;;;;;;16.51;60.96;100515.53;7626857;32;37097;-72
2022/09/05 02:56:58;;;;;;;5.05;3.65;;;;;;;16.50;61.17;100513.88;7632476;32;39737;-72
2022/09/05 03:02:00;;;;;;;7.03;3.65;;;;;;;16.51;61.16;100515.53;7624122;32;40199;-72
2022/09/05 03:06:40;;;;;;;7.22;3.62;;;;;;;16.23;61.64;100520.00;7606238;32;38379;-71
2022/09/05 03:11:38;;;;;;;5.97;3.87;;;;;;;16.02;62.35;100524.87;7606579;32;37931;-71
2022/09/05 03:16:25;;;;;;;6.10;3.72;;;;;;;16.18;61.96;100522.81;7599247;32;40167;-72
2022/09/05 03:21:10;;;;;;;5.45;3.42;;;;;;;16.30;61.42;100525.16;7606666;32;40106;-71
2022/09/05 03:25:42;;;;;;;4.82;3.87;;;;;;;16.12;62.16;100519.28;7606574;32;38788;-72
2022/09/05 03:30:07;;;;;;;5.82;3.60;;;;;;;16.02;62.08;100527.63;7606607;32;37896;-72
2022/09/05 03:34:42;;;;;;;5.20;3.85;;;;;;;16.06;62.28;100525.94;7628930;32;39108;-71
2022/09/05 03:39:33;;;;;;;6.95;3.80;;;;;;;16.31;61.09;100530.34;7632507;32;40845;-72
2022/09/05 03:43:49;;;;;;;6.25;3.78;;;;;;;15.94;61.97;100533.78;7622643;32;39036;-71
2022/09/05 03:48:11;;;;;;;7.05;3.60;;;;;;;15.70;62.83;100534.50;7632527;32;37967;-71
2022/09/05 03:53:15;;;;;;;8.75;3.87;;;;;;;16.01;61.97;100539.75;7580465;33;39328;-71
2022/09/05 03:58:05;;;;;;;8.25;3.10;;;;;;;16.12;61.65;100537.72;7580094;33;40053;-72
2022/09/05 04:02:52;;;;;;;6.22;4.12;;;;;;;16.26;61.31;100551.59;7580330;33;37887;-71
2022/09/05 04:07:46;;;;;;;6.25;3.90;;;;;;;16.30;60.86;100552.69;7580012;33;38401;-72
2022/09/05 04:12:39;;;;;;;7.28;3.87;;;;;;;16.01;61.54;100556.25;7579647;33;39768;-71
2022/09/05 04:17:05;;;;;;;6.03;4.18;;;;;;;15.89;62.12;100553.88;7580445;33;40529;-72
2022/09/05 04:21:30;;;;;;;5.28;3.50;;;;;;;16.11;61.71;100558.09;7611894;32;38727;-72
2022/09/05 04:26:14;;;;;;;6.85;3.70;;;;;;;15.92;62.70;100558.00;7630877;32;37888;-72
2022/09/05 04:30:48;;;;;;;5.28;3.50;;;;;;;16.05;62.27;100568.31;7631756;32;40072;-71
2022/09/05 04:35:20;;;;;;;5.60;3.60;;;;;;;16.15;61.88;100567.41;7626238;32;39872;-71
2022/09/05 04:39:36;;;;;;;7.00;3.83;;;;;;;15.82;62.66;100571.84;7611981;32;37948;-71
2022/09/05 04:44:09;;;;;;;5.28;3.85;;;;;;;16.23;61.34;100574.19;7605513;32;37784;-72
2022/09/05 04:48:31;;;;;;;7.20;4.03;;;;;;;16.09;61.96;100577.62;7605660;32;40268;-71
2022/09/05 04:53:10;;;;;;;4.97;3.40;;;;;;;16.00;62.42;100576.59;7598803;32;39847;-71
2022/09/05 04:57:52;;;;;;;5.70;3.67;;;;;;;16.03;62.62;100584.28;7602332;32;37901;-72
2022/09/05 05:02:22;;;;;;;5.65;3.80;;;;;;;15.94;63.35;100583.28;7605978;32;37794;-71
2022/09/05 05:07:25;;;;;;;7.25;4.03;;;;;;;15.99;63.41;100591.47;7599015;32;40548;-71
2022/09/05 05:12:10;;;;;;;5.50;3.70;;;;;;;16.02;63.54;100596.37;7604899;32;39537;-71
2022/09/05 05:17:16;;;;;;;6.57;3.67;;;;;;;15.74;64.64;100603.47;7626110;32;38381;-71
2022/09/05 05:21:59;;;;;;;6.28;4.03;;;;;;;15.89;64.18;100597.06;7601723;32;37533;-72
2022/09/05 05:26:26;;;;;;;5.30;3.53;;;;;;;16.05;63.76;100600.50;7604778;32;39125;-71
2022/09/05 05:30:42;;;;;;;7.75;3.85;;;;;;;16.28;63.30;100596.16;7602879;32;40805;-72
2022/09/05 05:35:07;;;;;;;5.37;3.72;;;;;;;16.10;63.90;100592.19;7604398;32;37986;-71
2022/09/05 05:39:27;;;;;;;8.95;3.70;;;;;;;16.24;63.75;100597.84;7604488;32;37803;-72
2022/09/05 05:43:44;;;;;;;6.87;4.07;;;;;;;16.26;63.81;100590.13;7623859;32;39296;-71
2022/09/05 05:48:05;;;;;;;5.25;3.72;;;;;;;16.58;63.14;100600.53;7630294;32;38968;-72
2022/09/05 05:52:44;;;;;;;9.95;4.50;;;;;;;16.88;62.60;100595.78;7626066;32;38426;-72
2022/09/05 05:57:45;;;;;;;6.05;4.12;;;;;;;16.55;64.51;100603.84;7609314;32;37121;-73
2022/09/05 06:02:20;;;;;;;6.55;4.37;;;;;;;16.80;63.77;100600.00;7603860;32;40205;-71
2022/09/05 06:07:07;;;;;;;8.07;3.95;;;;;;;16.99;63.38;100599.22;7607311;32;39997;-78
2022/09/05 06:11:44;;;;;;;5.65;3.92;;;;;;;17.50;62.45;100598.53;7607200;32;38891;-74
2022/09/05 06:16:55;;;;;;;8.20;3.92;;;;;;;17.73;62.00;100591.28;7606772;32;38370;-71
2022/09/05 06:21:34;;;;;;;6.93;3.78;;;;;;;18.01;60.65;100583.94;7602090;32;40409;-71
2022/09/05 06:26:37;;;;;;;10.63;4.05;;;;;;;17.93;60.86;100590.16;7621800;32;40054;-71
2022/09/05 06:31:01;;;;;;;10.90;4.33;;;;;;;17.40;63.87;100594.00;7606029;32;37618;-72
2022/09/05 06:35:59;;;;;;;6.05;3.47;;;;;;;17.86;62.41;100586.13;7604003;32;38103;-71
2022/09/05 06:40:49;;;;;;;10.13;3.50;;;;;;;18.25;61.43;100593.19;7607694;32;39200;-73
2022/09/05 06:45:27;;;;;;;6.03;3.40;;;;;;;18.37;61.42;100593.53;7611885;32;40975;-72
2022/09/05 06:50:23;;;;;;;4.18;3.33;;;;;;;18.11;62.24;100598.69;7604980;32;37945;-77
2022/09/05 06:54:45;;;;;;;4.60;3.20;;;;;;;18.65;60.41;100602.66;7606168;32;37987;-75
2022/09/05 06:59:51;;;;;;;7.95;3.55;;;;;;;19.07;59.48;100609.00;7605920;32;39391;-74
2022/09/05 07:04:28;;;;;;;4.62;3.28;;;;;;;19.45;58.20;100599.59;7606768;32;39716;-73
2022/09/05 07:09:15;;;;;;;6.80;3.10;;;;;;;19.77;58.01;100601.38;7632177;32;38015;-73
2022/09/05 07:13:45;;;;;;;7.82;3.65;;;;;;;19.44;57.35;100601.56;7622062;32;37054;-73
2022/09/05 07:18:07;;;;;;;7.87;3.62;;;;;;;19.68;57.62;100611.53;7627116;32;39377;-74
2022/09/05 07:22:34;;;;;;;6.03;3.25;;;;;;;19.93;55.72;100618.41;7632730;32;40901;-75
2022/09/05 07:27:05;;;;;;;5.45;2.87;;;;;;;20.35;55.85;100621.78;7615068;32;38204;-72
2022/09/05 07:31:26;;;;;;;4.45;2.90;;;;;;;20.48;55.25;100611.72;7601156;32;37680;-72
2022/09/05 07:35:53;;;;;;;4.55;3.15;;;;;;;20.87;54.85;100612.06;7584987;32;39496;-73
2022/09/05 07:40:20;;;;;;;5.57;3.17;;;;;;;21.08;54.10;100607.56;7592250;32;39458;-73
2022/09/05 07:44:55;;;;;;;6.05;3.17;;;;;;;21.22;54.28;100612.97;7582570;32;38750;-73
2022/09/05 07:49:15;;;;;;;4.12;2.90;;;;;;;21.07;54.93;100617.00;7567512;33;38232;-72
2022/09/05 07:53:33;;;;;;;7.68;3.20;;;;;;;21.57;53.92;100607.47;7565881;32;40122;-71
2022/09/05 07:58:13;;;;;;;4.40;2.97;;;;;;;21.63;53.39;100608.97;7580695;32;40147;-73
2022/09/05 08:02:30;;;;;;;5.85;3.25;;;;;;;21.47;54.05;100616.13;7606214;32;38647;-73
2022/09/05 08:06:51;;;;;;;5.90;3.50;;;;;;;21.47;54.08;100607.81;7594667;32;37837;-73
2022/09/05 08:11:31;;;;;;;7.78;2.78;;;;;;;21.62;53.64;100609.28;7585362;32;39359;-73
2022/09/05 08:15:52;;;;;;;6.85;2.70;;;;;;;22.15;52.79;100596.97;7606155;32;40026;-73
2022/09/05 08:20:59;;;;;;;7.87;3.20;;;;;;;22.16;52.30;100606.91;7605870;32;38790;-73
2022/09/05 08:25:22;;;;;;;6.22;3.20;;;;;;;22.29;51.84;100597.59;7584885;32;38032;-72
2022/09/05 08:29:47;;;;;;;4.62;2.85;;;;;;;22.39;52.12;100607.56;7579918;33;39683;-73
2022/09/05 08:34:34;;;;;;;6.47;2.90;;;;;;;22.90;51.28;100599.31;7589868;32;40824;-75
2022/09/05 08:39:02;;;;;;;5.25;2.72;;;;;;;23.21;50.46;100598.97;7579830;33;38122;-73
2022/09/05 08:43:21;;;;;;;4.90;2.92;;;;;;;23.27;48.80;100604.34;7578720;33;36871;-73
2022/09/05 08:48:18;;;;;;;4.80;2.95;;;;;;;23.35;48.25;100597.91;7588058;32;40346;-72
2022/09/05 08:52:58;;;;;;;5.05;2.62;;;;;;;23.98;46.73;100590.34;7603970;32;40860;-71
2022/09/05 08:57:37;;;;;;;6.20;3.03;;;;;;;23.99;45.92;100586.41;7603129;32;38778;-74
2022/09/05 09:02:12;;;;;;;6.15;2.75;;;;;;;23.49;45.52;100592.91;7602731;32;37802;-73
2022/09/05 09:07:25;;;;;;;6.12;2.62;;;;;;;23.92;44.17;100586.16;7595579;32;40236;-73
2022/09/05 09:12:20;;;;;;;2.57;2.20;;;;;;;24.09;41.10;100581.56;7600477;32;41035;-72
2022/09/05 09:16:39;;;;;;;3.40;2.20;;;;;;;23.52;40.30;100592.19;7600413;32;37616;-74
2022/09/05 09:21:30;;;;;;;2.97;2.15;;;;;;;24.59;39.34;100580.50;7600749;32;37305;-73
2022/09/05 09:26:09;;;;;;;4.80;2.17;;;;;;;24.72;36.10;100570.97;7601885;32;39467;-73
2022/09/05 09:30:28;;;;;;;4.95;3.47;;;;;;;25.73;35.76;100564.84;7604605;32;40855;-73
2022/09/05 09:35:22;;;;;;;7.35;3.42;;;;;;;25.51;37.63;100563.41;7596086;32;229437;-73
2022/09/05 09:39:45;;;;;;;5.65;3.33;;;;;;;26.23;37.24;100553.06;7605720;32;37146;-73
2022/09/05 09:44:38;;;;;;;5.50;3.22;;;;;;;25.99;36.56;100564.38;7607938;32;39985;-74
2022/09/05 09:48:57;;;;;;;4.93;3.03;;;;;;;26.29;37.07;100564.00;7610819;32;40030;-74
2022/09/05 09:53:21;;;;;;;4.03;2.72;;;;;;;26.71;35.99;100555.06;7632910;32;37767;-73
2022/09/05 09:58:18;;;;;;;7.00;2.80;;;;;;;26.35;36.05;100559.72;7631874;32;37819;-73
2022/09/05 10:03:01;;;;;;;6.05;2.70;;;;;;;27.12;34.90;100552.81;7563881;32;39770;-73
2022/09/05 10:07:42;;;;;;;5.07;2.92;;;;;;;27.48;35.60;100551.59;7632291;32;41641;-73
2022/09/05 10:12:41;;;;;;;4.57;2.80;;;;;;;27.10;35.10;100546.75;7606095;32;38405;-73
2022/09/05 10:17:26;;;;;;;3.65;2.53;;;;;;;27.19;35.15;100541.75;7616211;32;37101;-73
2022/09/05 10:21:56;;;;;;;5.00;2.90;;;;;;;26.67;34.53;100540.19;7616545;32;40251;-73
2022/09/05 10:27:01;;;;;;;4.82;2.40;;;;;;;27.14;33.31;100534.44;7604397;32;40179;-72
2022/09/05 10:31:20;;;;;;;4.28;2.78;;;;;;;27.53;32.79;100525.31;7625436;32;38532;-73
2022/09/05 10:36:18;;;;;;;7.10;2.70;;;;;;;27.76;32.79;100535.75;7618964;32;38336;-73
2022/09/05 10:40:36;;;;;;;3.80;2.40;;;;;;;27.52;32.89;100523.66;7632371;32;39295;-73
2022/09/05 10:45:22;;;;;;;4.78;2.70;;;;;;;28.37;33.64;100520.84;7628180;32;40232;-73
2022/09/05 10:50:07;;;;;;;3.47;2.50;;;;;;;28.26;32.67;100511.44;7632636;32;38242;-73
2022/09/05 10:54:41;;;;;;;6.72;2.15;;;;;;;28.04;31.16;100511.06;7633096;32;36814;-73
2022/09/05 10:59:03;;;;;;;3.55;2.30;;;;;;;28.42;31.50;100514.94;7633010;32;39024;-73
2022/09/05 11:03:50;;;;;;;3.12;2.22;;;;;;;28.41;32.69;100504.87;7632620;32;41214;-73
2022/09/05 11:08:28;;;;;;;5.75;2.20;;;;;;;28.81;29.09;100497.87;7632909;32;38779;-73
2022/09/05 11:13:03;;;;;;;3.42;2.33;;;;;;;28.97;31.06;100494.87;7631077;32;37041;-74
2022/09/05 11:17:46;;;;;;;4.32;2.22;;;;;;;28.91;30.07;100488.00;7629022;32;39355;-73
2022/09/05 11:22:04;;;;;;;5.65;2.58;;;;;;;29.49;28.49;100489.53;7631022;32;39949;-73
2022/09/05 11:26:48;;;;;;;3.53;2.37;;;;;;;30.09;27.99;100480.13;7632304;32;38139;-73
2022/09/05 11:31:48;;;;;;;4.12;2.28;;;;;;;29.10;29.17;100484.25;7628583;32;37647;-73
2022/09/05 11:36:44;;;;;;;3.30;2.50;;;;;;;28.53;31.30;100483.41;7628767;32;40512;-76
2022/09/05 11:41:45;;;;;;;5.03;2.47;;;;;;;29.79;29.58;100469.03;7632019;32;40369;-76
2022/09/05 11:46:30;;;;;;;3.10;2.28;;;;;;;30.57;27.27;100462.44;7632459;32;38849;-75
2022/09/05 11:51:04;;;;;;;4.05;2.20;;;;;;;30.67;27.93;100461.69;7631902;32;37864;-76
2022/09/05 11:55:32;;;;;;;5.05;2.37;;;;;;;30.31;28.61;100466.25;7632636;32;38126;-77
2022/09/05 12:00:15;;;;;;;6.30;2.25;;;;;;;30.53;27.23;100458.81;7624982;32;39866;-76
2022/09/05 12:05:03;;;;;;;5.95;2.40;;;;;;;30.60;26.54;100452.41;7632201;32;38532;-76
2022/09/05 12:10:00;;;;;;;4.35;2.42;;;;;;;30.47;27.56;100454.72;7631683;32;38394;-76
2022/09/05 12:14:39;;;;;;;4.72;2.78;;;;;;;30.86;26.32;100454.97;7632104;32;40059;-76
2022/09/05 12:19:27;;;;;;;6.22;2.35;;;;;;;30.28;27.42;100453.75;7631438;32;39966;-75
2022/09/05 12:24:26;;;;;;;4.53;2.73;;;;;;;30.79;27.55;100449.28;7625091;32;36794;-77
2022/09/05 12:29:09;;;;;;;3.15;2.28;;;;;;;30.83;26.93;100446.50;7620485;32;37449;-77
2022/09/05 12:33:50;;;;;;;3.83;2.40;;;;;;;31.11;27.48;100442.22;7631307;32;39654;-73
2022/09/05 12:38:29;;;;;;;4.62;2.60;;;;;;;31.08;26.68;100435.38;7631431;32;40087;-73
2022/09/05 12:43:08;;;;;;;4.93;2.15;;;;;;;30.53;27.14;100430.66;7631192;32;38304;-73
2022/09/05 12:48:24;;;;;;;3.22;2.22;;;;;;;31.46;27.29;100419.00;7631182;32;38406;-75
2022/09/05 12:53:05;;;;;;;3.10;2.20;;;;;;;30.69;27.18;100419.91;7631635;32;39043;-74
2022/09/05 12:57:29;;;;;;;4.53;2.45;;;;;;;31.40;26.55;100414.94;7627669;32;38611;-74
2022/09/05 13:02:08;;;;;;;3.87;2.25;;;;;;;31.45;26.56;100406.91;7630987;32;39238;-74
2022/09/05 13:06:57;;;;;;;5.32;2.60;;;;;;;32.23;24.71;100410.19;7629646;32;37729;-73
2022/09/05 13:11:18;;;;;;;3.75;2.10;;;;;;;31.43;25.06;100408.50;7631034;32;40251;-74
2022/09/05 13:15:55;;;;;;;4.90;2.42;;;;;;;30.49;26.83;100410.13;7624166;32;40294;-75
2022/09/05 13:20:19;;;;;;;4.75;2.40;;;;;;;30.45;27.31;100406.50;7625993;32;38589;-75
2022/09/05 13:24:40;;;;;;;4.05;2.40;;;;;;;30.97;28.11;100398.72;7630682;32;37344;-74
2022/09/05 13:28:57;;;;;;;3.70;2.33;;;;;;;31.04;27.77;100397.94;7624253;32;39942;-74
2022/09/05 13:33:45;;;;;;;5.47;2.20;;;;;;;30.56;27.01;100395.31;7626965;32;40743;-73
2022/09/05 13:38:38;;;;;;;2.80;1.95;;;;;;;31.27;27.89;100394.81;7629835;32;38207;-74
2022/09/05 13:43:20;;;;;;;3.00;1.95;;;;;;;32.15;24.96;100386.84;7619268;32;37860;-74
2022/09/05 13:47:54;;;;;;;4.18;1.98;;;;;;;31.39;24.83;100388.78;7630430;32;39350;-74
2022/09/05 13:52:38;;;;;;;2.20;2.00;;;;;;;31.61;25.03;100386.00;7608365;32;39920;-74
2022/09/05 13:57:15;;;;;;;5.18;2.62;;;;;;;30.89;26.01;100381.00;7591474;32;38075;-74
2022/09/05 14:01:54;;;;;;;3.10;1.85;;;;;;;31.42;25.16;100378.72;7602391;32;38533;-74
2022/09/05 14:06:32;;;;;;;;;;;;;;;31.78;25.92;100364.69;7603288;32;40707;-74
2022/09/05 14:11:08;;;;;;;;;;;;;;;32.30;23.87;100359.37;7604507;32;40228;-74
2022/09/05 14:15:36;;;;;;;7.57;2.27;;;;;;;32.15;24.20;100355.81;7602912;32;39085;-74
2022/09/05 14:24:32;;;;;;;3.72;2.10;;;;;;;31.60;24.14;100351.41;7603781;32;39349;-74
2022/09/05 14:29:12;;;;;;;2.40;1.77;;;;;;;29.71;26.96;100357.72;7593669;32;39889;-73
2022/09/05 14:34:04;;;;;;;2.45;1.80;;;;;;;31.01;26.20;100348.91;7595038;32;37993;-75
2022/09/05 14:38:55;;;;;;;2.37;1.75;;;;;;;31.00;25.98;100349.28;7606356;32;37612;-75
2022/09/05 14:43:29;;;;;;;3.78;1.70;;;;;;;31.61;24.47;100349.37;7606204;32;39902;-75
2022/09/05 14:48:09;;;;;;;3.53;2.08;;;;;;;31.63;24.19;100344.16;7606906;32;40001;-75
2022/09/05 14:52:29;;;;;;;3.05;1.70;;;;;;;31.82;24.33;100345.75;7606170;32;38219;-75
2022/09/05 14:56:55;;;;;;;3.55;1.90;;;;;;;31.68;25.32;100334.50;7606522;32;36722;-74
2022/09/05 15:01:34;;;;;;;4.57;2.15;;;;;;;31.46;24.51;100340.12;7606128;32;40341;-75
2022/09/05 15:06:14;;;;;;;6.43;2.22;;;;;;;31.39;24.70;100340.91;7605765;32;41253;-75
2022/09/05 15:10:31;;;;;;;2.47;1.95;;;;;;;30.99;26.28;100339.22;7606460;32;38167;-75
2022/09/05 15:15:07;;;;;;;2.58;1.80;;;;;;;31.12;25.54;100331.22;7605582;32;37493;-75
2022/09/05 15:19:48;;;;;;;3.47;1.75;;;;;;;30.58;26.31;100334.66;7606397;32;40251;-75
2022/09/05 15:24:30;;;;;;;2.08;1.73;;;;;;;30.34;25.18;100334.09;7606039;32;39958;-75
2022/09/05 15:28:49;;;;;;;2.00;1.58;;;;;;;30.55;25.51;100329.81;7606239;32;38105;-75
2022/09/05 15:33:30;;;;;;;4.12;2.20;;;;;;;31.14;26.05;100323.97;7594770;32;37581;-75
2022/09/05 15:37:48;;;;;;;6.45;2.12;;;;;;;30.70;26.16;100325.84;7605641;32;39273;-75
2022/09/05 15:42:20;;;;;;;4.72;1.87;;;;;;;30.28;27.27;100321.59;7592903;32;40737;-76
2022/09/05 15:46:59;;;;;;;4.78;2.05;;;;;;;30.17;28.18;100317.94;7606017;32;38907;-74
2022/09/05 15:51:30;;;;;;;4.47;1.83;;;;;;;30.61;27.35;100322.56;7605734;32;37266;-75
2022/09/05 15:55:49;;;;;;;3.22;2.45;;;;;;;30.41;28.00;100310.03;7594105;32;39427;-75
2022/09/05 16:00:45;;;;;;;2.83;2.00;;;;;;;29.35;28.19;100315.28;7587665;32;39618;-74
2022/09/05 16:05:09;;;;;;;5.07;2.35;;;;;;;29.71;29.33;100302.34;7605483;32;37955;-75
2022/09/05 16:09:49;;;;;;;7.43;2.40;;;;;;;30.13;28.37;100300.22;7605535;32;37759;-73
2022/09/05 16:14:32;;;;;;;4.35;2.30;;;;;;;30.11;28.44;100302.63;7605346;32;39661;-75
2022/09/05 16:18:54;;;;;;;7.37;2.30;;;;;;;30.07;28.76;100296.19;7592590;32;39602;-74
2022/09/05 16:23:36;;;;;;;3.53;2.00;;;;;;;29.95;30.39;100300.94;7594386;32;38277;-75
2022/09/05 16:27:58;;;;;;;3.92;2.25;;;;;;;30.03;29.53;100298.16;7592956;32;37103;-74
2022/09/05 16:32:27;;;;;;;8.80;2.65;;;;;;;30.20;29.13;100299.47;7605530;32;39526;-75
2022/09/05 16:36:53;;;;;;;4.45;2.40;;;;;;;30.29;30.04;100292.28;7592054;32;40150;-73
2022/09/05 16:41:56;;;;;;;4.43;2.40;;;;;;;30.37;30.29;100295.16;7605220;32;37783;-73
2022/09/05 16:46:21;;;;;;;4.95;2.80;;;;;;;29.84;31.50;100297.25;7593277;32;36947;-73
2022/09/05 16:50:40;;;;;;;6.85;2.60;;;;;;;29.33;33.35;100298.03;7604885;32;39040;-75
2022/09/05 16:55:34;;;;;;;5.05;2.60;;;;;;;29.07;34.14;100288.53;7605362;32;39993;-75
2022/09/05 16:59:51;;;;;;;6.55;2.80;;;;;;;28.93;35.35;100297.63;7593525;32;37968;-74
2022/09/05 17:04:28;;;;;;;3.90;2.70;;;;;;;28.52;36.11;100296.72;7604585;32;36982;-74
2022/09/05 17:08:47;;;;;;;9.30;2.95;;;;;;;28.34;37.33;100299.28;7592909;32;39446;-74
2022/09/05 17:13:05;;;;;;;6.28;2.85;;;;;;;27.79;38.25;100303.31;7604648;32;39887;-74
2022/09/05 17:18:09;;;;;;;6.43;3.22;;;;;;;27.65;39.12;100303.91;7591386;32;38110;-73
2022/09/05 17:22:46;;;;;;;18.23;5.28;;;;;;;27.51;38.38;100307.28;7542397;32;37133;-74
2022/09/05 17:27:27;;;;;;;11.20;4.40;;;;;;;27.06;38.57;100313.62;7598946;32;40522;-74
2022/09/05 17:32:04;;;;;;;9.77;3.58;;;;;;;26.77;39.46;100315.88;7619802;32;40995;-74
2022/09/05 17:36:42;;;;;;;12.52;3.40;;;;;;;26.64;39.83;100311.63;7614577;32;38984;-73
2022/09/05 17:41:06;;;;;;;14.00;6.55;;;;;;;26.33;40.73;100318.94;7614375;32;37906;-74
2022/09/05 17:45:43;;;;;;;16.52;4.37;;;;;;;26.24;40.94;100314.34;7614772;32;39331;-73
2022/09/05 17:50:28;;;;;;;13.45;4.55;;;;;;;25.91;41.79;100325.16;7619176;32;39702;-73
2022/09/05 17:54:53;;;;;;;11.57;4.00;;;;;;;25.67;42.27;100326.97;7623456;32;38775;-74
2022/09/05 17:59:18;;;;;;;7.20;2.75;;;;;;;25.38;42.80;100331.03;7631332;32;37175;-73
2022/09/05 18:03:40;;;;;;;3.78;2.58;;;;;;;25.20;42.98;100342.50;7633534;32;39496;-73
2022/09/05 18:07:57;;;;;;;12.50;3.55;;;;;;;24.85;43.94;100348.72;7618310;32;39909;-74
2022/09/05 18:12:38;;;;;;;12.02;3.53;;;;;;;24.91;43.09;100352.06;7608329;32;38174;-75
2022/09/05 18:17:47;;;;;;;5.55;2.70;;;;;;;24.79;43.29;100352.94;7608876;32;37371;-73
2022/09/05 18:22:23;;;;;;;20.00;4.03;;;;;;;24.73;43.65;100357.94;7594904;32;39819;-73
2022/09/05 18:26:43;;;;;;;12.10;3.90;;;;;;;24.34;44.75;100363.13;7593673;32;40892;-73
2022/09/05 18:31:37;;;;;;;6.93;3.47;;;;;;;24.17;45.12;100357.81;7626798;32;38582;-73
2022/09/05 18:35:57;;;;;;;10.43;3.92;;;;;;;24.12;45.33;100367.22;7607757;32;37134;-73
2022/09/05 18:40:29;;;;;;;39.53;8.23;;;;;;;23.84;45.54;100375.47;7607619;32;40380;-73
2022/09/05 18:45:00;;;;;;;41.03;7.90;;;;;;;23.90;44.94;100371.28;7595423;32;40852;-73
2022/09/05 18:49:29;;;;;;;39.80;8.20;;;;;;;23.93;44.84;100375.34;7622350;32;38050;-73
2022/09/05 18:54:11;;;;;;;24.48;7.18;;;;;;;23.78;45.30;100386.00;7611182;32;38386;-73
2022/09/05 18:58:44;;;;;;;21.05;5.70;;;;;;;23.84;45.20;100385.81;7602991;32;39407;-73
2022/09/05 19:03:07;;;;;;;15.15;4.30;;;;;;;23.36;46.45;100382.56;7632681;32;39981;-72
2022/09/05 19:07:30;;;;;;;12.68;4.05;;;;;;;23.37;46.61;100378.59;7632699;32;38197;-73
2022/09/05 19:12:01;;;;;;;14.35;4.85;;;;;;;23.36;46.42;100377.81;7610521;32;37203;-73
2022/09/05 19:16:38;;;;;;;9.43;3.40;;;;;;;23.07;47.16;100384.31;7601811;32;39702;-73
2022/09/05 19:21:06;;;;;;;4.53;3.15;;;;;;;22.92;47.38;100379.34;7607122;32;40027;-73
2022/09/05 19:25:38;;;;;;;8.88;3.47;;;;;;;22.61;48.36;100372.25;7595419;32;38117;-72
2022/09/05 19:29:54;;;;;;;9.13;3.40;;;;;;;22.59;48.05;100371.78;7607266;32;37131;-73
2022/09/05 19:34:32;;;;;;;9.68;3.45;;;;;;;22.45;48.20;100372.84;7606106;32;39663;-73
2022/09/05 19:39:15;;;;;;;5.40;3.22;;;;;;;22.38;47.98;100369.81;7603130;32;41307;-74
2022/09/05 19:44:06;;;;;;;9.50;3.40;;;;;;;22.21;48.34;100367.13;7609059;32;39265;-74
2022/09/05 19:48:52;;;;;;;9.48;3.62;;;;;;;22.20;48.82;100362.75;7630781;32;37425;-72
2022/09/05 19:53:11;;;;;;;7.60;3.53;;;;;;;22.07;49.69;100365.41;7630378;32;39365;-72
2022/09/05 19:57:28;;;;;;;8.05;3.12;;;;;;;22.06;49.16;100361.00;7631344;32;40773;-72
2022/09/05 20:01:45;;;;;;;5.80;3.62;;;;;;;22.00;48.67;100364.31;7603185;32;38037;-73
2022/09/05 20:06:01;;;;;;;9.10;3.25;;;;;;;21.94;49.62;100366.47;7628569;32;37005;-75
2022/09/05 20:10:33;;;;;;;6.85;3.55;;;;;;;21.83;49.83;100365.22;7619018;32;39388;-72
2022/09/05 20:14:49;;;;;;;6.20;3.40;;;;;;;21.98;49.72;100372.16;7630139;32;40043;-73
2022/09/05 20:19:20;;;;;;;8.48;4.05;;;;;;;21.96;49.95;100363.38;7618151;32;38956;-72
2022/09/05 20:23:50;;;;;;;7.78;3.70;;;;;;;22.08;49.42;100355.94;7617845;32;37139;-72
2022/09/05 20:28:10;;;;;;;8.45;3.58;;;;;;;21.73;50.37;100361.66;7617860;32;39470;-72
2022/09/05 20:32:35;;;;;;;5.72;3.37;;;;;;;21.61;50.95;100369.88;7614989;32;40158;-71
2022/09/05 20:37:03;;;;;;;8.18;3.62;;;;;;;21.86;50.50;100364.53;7597535;32;37980;-73
2022/09/05 20:41:39;;;;;;;36.17;10.52;;;;;;;21.71;51.00;100372.28;7604993;32;37647;-72
2022/09/05 20:46:23;;;;;;;44.75;12.50;;;;;;;21.77;50.99;100367.38;7598760;32;40574;-71
2022/09/05 20:50:59;;;;;;;28.10;8.73;;;;;;;22.02;50.22;100367.56;7599955;32;39943;-73
2022/09/05 20:55:37;;;;;;;30.85;11.05;;;;;;;21.78;50.03;100366.19;7593806;32;38135;-73
2022/09/05 21:00:05;;;;;;;22.48;8.25;;;;;;;21.48;50.87;100365.34;7614943;32;37161;-73
2022/09/05 21:04:33;;;;;;;15.63;6.80;;;;;;;21.42;50.76;100374.97;7631056;32;39564;-75
2022/09/05 21:08:52;;;;;;;15.10;5.15;;;;;;;21.63;49.11;100367.59;7628416;32;40594;-74
2022/09/05 21:13:15;;;;;;;10.40;3.67;;;;;;;21.37;49.23;100374.00;7621629;32;36979;-72
2022/09/05 21:17:32;;;;;;;7.70;3.58;;;;;;;21.56;49.28;100378.38;7609585;32;36835;-72
2022/09/05 21:22:19;;;;;;;15.48;3.65;;;;;;;21.38;49.77;100378.38;7606197;32;39372;-74
2022/09/05 21:26:35;;;;;;;8.07;3.67;;;;;;;21.30;49.69;100382.03;7612004;32;40060;-73
2022/09/05 21:30:52;;;;;;;6.05;3.28;;;;;;;21.44;49.07;100386.53;7630021;32;38658;-73